Airfield :
LOGIN :

Register | Disclaimer

   EN    FR    IT 

 










Legend :    VFR   Marginal VFR   IFR   Intensive IFR   Very Intensive IFR
Visi :
Ceiling :
>= 8 km
>= 3000ft
5 to 8 km
1000 to 3000 ft
1500m to 5 km
500 to 1000 ft
800 to 1500m
200 to 500 ft
< 800m
< 200 ft
Symbols :   Thunderstorms  Fog  Heavy snow  Heavy precipitations  Wind > 20 kt
SIGMETs :     Misc.  Thunderstorms  Icing  Turbulence  Mountain Waves  Volcanic Ashes






- Airport Elevation : 586 ft
- IATA code : IEV


UKKK - Zhuliany

CURRENT METAR :
  • 070330Z 20003MPS 160V230 CAVOK 19/13 Q1014 R26/70D NOSIG

EXPIRED METARs :
  • 070300Z 20002MPS 120V280 CAVOK 19/13 Q1014 R26/70D NOSIG
  • 070230Z VRB01MPS CAVOK 17/13 Q1013 R26/CLRD70 NOSIG
  • 070200Z 19002MPS 120V260 CAVOK 18/13 Q1013 R26/CLRD70 NOSIG
  • 070130Z VRB01MPS CAVOK 18/14 Q1013 R26/CLRD70 NOSIG
  • 070100Z VRB01MPS CAVOK 17/14 Q1013 R26/CLRD70 NOSIG

TAF TAF UKKK
Valid from the 07 at 00:00 until the 08 at 00:00 UTC


062303Z 0700/0724 VRB01MPS 9999 SCT030 TX29/0712Z TN16/0703Z
TEMPO 0700/0705 2000 BR BKN006
BECMG 0705/0707 14006G12MPS



MET'MAP, your aeronautical weather chart ! - Copyright ORBIFLY December 2007 - Disclaimer

ORBIFLY MET'MAP TEAM :

Programming & Development : Alexandra Zaïnal
Concept & original design : Baudouin d'Aumeries
Assistance for programming : Marc-Olivier Méhu
Technical & hardware support : Manuel Goepfert

Contact : metmap@orbifly.com




SOURCES & CREDITS :

   NOAA